Terminal Aerodrome Forecast
Issued by NWS Central Illinois

Home | Current Version | Previous Version | Text Only | Print | Product List | Glossary On
Versions: 1 2 3 4 5 6 7 8 9 10 11 12 13 14 15
000
FTUS43 KILX 061139
TAFSPI
TAF
KSPI 061139Z 0612/0712 18008KT P6SM SCT110
     FM061400 18010KT P6SM SCT250
     FM061700 18012G20KT P6SM SCT050 SCT250
     FM070000 16007KT P6SM SCT250=

USA.gov is the U.S. government's official web portal to all federal, state and local government web resources and services.